Time;durP1;ratioP1;P1;durP2;ratioP2;P2;SDS_P1;SDS_P2;PMS_P1;PMS_P2;Temp;Humidity;BMP_temperature;BMP_pressure;BME280_temperature;BME280_humidity;BME280_pressure;Samples;Min_cycle;Max_cycle;Signal;HPM_P1;HPM_P2
2021/05/19 00:00:43;;;;;;;0.75;0.65;;;12.90;80.70;;;;;;5110495;27;27582;-55
2021/05/19 00:03:49;;;;;;;1.83;1.20;;;12.90;80.80;;;;;;5126729;27;27336;-56
2021/05/19 00:06:57;;;;;;;2.67;1.52;;;12.90;80.50;;;;;;5111530;27;27477;-56
2021/05/19 00:10:07;;;;;;;1.33;0.90;;;12.90;80.80;;;;;;5126277;27;27495;-56
2021/05/19 00:13:36;;;;;;;1.60;0.90;;;12.90;80.90;;;;;;5110252;27;27416;-56
2021/05/19 00:17:03;;;;;;;0.93;0.70;;;12.80;80.90;;;;;;5126899;27;27477;-57
2021/05/19 00:20:36;;;;;;;2.03;0.93;;;12.80;80.80;;;;;;5126419;27;27427;-56
2021/05/19 00:23:33;;;;;;;2.40;0.80;;;12.80;81.30;;;;;;5126492;27;27459;-54
2021/05/19 00:27:02;;;;;;;1.38;0.70;;;12.80;80.90;;;;;;5126786;27;27486;-55
2021/05/19 00:29:53;;;;;;;4.20;1.15;;;12.70;80.70;;;;;;5126095;27;27403;-53
2021/05/19 00:33:05;;;;;;;0.80;0.80;;;12.70;80.70;;;;;;5126565;27;27853;-56
2021/05/19 00:36:32;;;;;;;1.50;1.23;;;12.70;80.40;;;;;;5123208;27;27473;-56
2021/05/19 00:39:38;;;;;;;2.17;0.60;;;12.70;80.60;;;;;;5125871;27;27520;-56
2021/05/19 00:42:44;;;;;;;1.67;0.60;;;12.70;80.90;;;;;;5126358;27;27379;-56
2021/05/19 00:45:52;;;;;;;1.67;0.52;;;12.70;80.40;;;;;;5109902;27;27451;-52
2021/05/19 00:49:00;;;;;;;1.00;0.82;;;12.70;80.80;;;;;;5110625;27;27588;-56
2021/05/19 00:52:32;;;;;;;0.45;0.45;;;12.70;80.90;;;;;;5110827;27;27483;-55
2021/05/19 00:55:59;;;;;;;1.00;0.80;;;12.60;81.10;;;;;;5125265;27;27597;-55
2021/05/19 00:59:05;;;;;;;0.50;0.47;;;12.60;81.20;;;;;;5125748;27;27904;-56
2021/05/19 01:02:14;;;;;;;0.75;0.70;;;12.60;81.30;;;;;;5110418;27;27447;-56
2021/05/19 01:05:32;;;;;;;0.85;0.50;;;12.60;81.30;;;;;;5104169;28;27506;-54
2021/05/19 01:09:35;;;;;;;4.55;0.90;;;12.60;81.10;;;;;;5099809;27;27406;-58
2021/05/19 01:13:03;;;;;;;0.75;0.75;;;12.60;80.90;;;;;;5105054;28;27591;-55
2021/05/19 01:16:49;;;;;;;2.10;0.68;;;12.60;81.30;;;;;;5102259;28;27411;-58
2021/05/19 01:20:40;;;;;;;1.02;0.63;;;12.60;81.40;;;;;;5105376;28;27569;-58
2021/05/19 01:23:38;;;;;;;1.60;0.70;;;12.60;81.20;;;;;;5104730;28;27391;-58
2021/05/19 01:26:36;;;;;;;1.63;0.60;;;12.50;81.50;;;;;;5101314;28;27386;-58
2021/05/19 01:29:45;;;;;;;1.52;0.68;;;12.50;81.20;;;;;;5105026;28;27490;-58
2021/05/19 01:32:52;;;;;;;5.25;0.70;;;12.50;81.20;;;;;;5103230;28;27337;-58
2021/05/19 01:36:19;;;;;;;0.40;0.40;;;12.50;81.10;;;;;;5104503;28;27957;-56
2021/05/19 01:39:36;;;;;;;0.85;0.65;;;12.50;81.30;;;;;;5104084;28;27922;-57
2021/05/19 01:42:33;;;;;;;10.77;1.08;;;12.50;81.50;;;;;;5101197;28;27734;-56
2021/05/19 01:45:41;;;;;;;0.80;0.70;;;12.40;81.50;;;;;;5101943;28;27445;-58
2021/05/19 01:48:51;;;;;;;2.33;0.80;;;12.50;81.40;;;;;;5105091;28;27370;-57
2021/05/19 01:52:04;;;;;;;1.40;0.70;;;12.40;81.10;;;;;;5104730;28;27993;-56
2021/05/19 01:55:08;;;;;;;2.67;0.70;;;12.40;81.40;;;;;;5103820;28;27424;-55
2021/05/19 01:58:18;;;;;;;0.90;0.90;;;12.40;81.10;;;;;;5100654;28;27407;-55
2021/05/19 02:01:45;;;;;;;2.72;2.53;;;12.40;81.20;;;;;;5104196;28;27485;-58
2021/05/19 02:04:53;;;;;;;2.28;1.30;;;12.40;81.40;;;;;;5107511;27;27624;-55
2021/05/19 02:07:52;;;;;;;1.48;1.20;;;12.40;81.50;;;;;;5109731;27;27433;-56
2021/05/19 02:11:05;;;;;;;4.70;1.40;;;12.40;81.80;;;;;;5122049;27;27415;-51
2021/05/19 02:14:06;;;;;;;1.25;1.15;;;12.40;81.40;;;;;;5121203;27;27387;-55
2021/05/19 02:17:14;;;;;;;1.63;1.05;;;12.40;81.40;;;;;;5106301;27;27392;-55
2021/05/19 02:20:31;;;;;;;2.13;1.20;;;12.40;81.80;;;;;;5108250;27;27462;-52
2021/05/19 02:23:58;;;;;;;1.35;1.10;;;12.40;81.50;;;;;;5106198;27;27427;-58
2021/05/19 02:27:07;;;;;;;0.88;0.80;;;12.40;81.70;;;;;;5121557;27;26901;-58
2021/05/19 02:30:36;;;;;;;3.22;0.90;;;12.30;81.60;;;;;;5121512;27;27974;-58
2021/05/19 02:33:45;;;;;;;2.63;0.88;;;12.30;81.70;;;;;;5106069;27;27333;-55
2021/05/19 02:36:54;;;;;;;2.53;0.93;;;12.30;81.60;;;;;;5109546;27;27478;-58
2021/05/19 02:40:22;;;;;;;3.47;1.30;;;12.30;81.50;;;;;;5108113;27;27462;-56
2021/05/19 02:43:56;;;;;;;3.15;1.00;;;12.30;81.40;;;;;;5105790;27;27398;-57
2021/05/19 02:47:15;;;;;;;1.42;1.33;;;12.30;81.50;;;;;;5121269;27;27332;-56
2021/05/19 02:50:26;;;;;;;3.58;1.10;;;12.30;81.70;;;;;;5123985;27;27531;-56
2021/05/19 02:53:32;;;;;;;1.88;1.00;;;12.20;81.90;;;;;;5124337;27;27407;-54
2021/05/19 02:56:39;;;;;;;2.08;0.93;;;12.20;81.80;;;;;;5122812;27;27823;-56
2021/05/19 02:59:43;;;;;;;1.30;1.00;;;12.20;82.00;;;;;;5109245;27;27408;-57
2021/05/19 03:03:08;;;;;;;0.80;0.80;;;12.20;81.40;;;;;;5124520;27;27416;-56
2021/05/19 03:06:22;;;;;;;1.73;1.08;;;12.20;81.80;;;;;;5122619;27;27597;-56
2021/05/19 03:09:52;;;;;;;1.25;1.00;;;12.20;82.40;;;;;;5124138;27;27468;-56
2021/05/19 03:12:58;;;;;;;0.80;0.80;;;12.20;82.40;;;;;;5123592;27;27379;-55
2021/05/19 03:16:04;;;;;;;2.10;1.42;;;12.20;82.60;;;;;;5124450;27;27363;-56
2021/05/19 03:19:14;;;;;;;3.08;1.00;;;12.20;82.90;;;;;;5123855;27;27593;-57
2021/05/19 03:22:27;;;;;;;0.70;0.63;;;12.20;82.40;;;;;;5124032;27;27481;-56
2021/05/19 03:25:33;;;;;;;1.25;0.75;;;12.20;82.50;;;;;;5125898;27;27431;-55
2021/05/19 03:28:51;;;;;;;0.95;0.88;;;12.10;82.80;;;;;;5124709;27;27451;-57
2021/05/19 03:31:57;;;;;;;3.58;0.80;;;12.20;83.00;;;;;;5127292;27;27406;-56
2021/05/19 03:35:05;;;;;;;4.63;2.45;;;12.10;82.40;;;;;;5126715;27;27344;-57
2021/05/19 03:38:34;;;;;;;1.58;1.10;;;12.10;82.50;;;;;;5127320;27;27468;-55
2021/05/19 03:41:32;;;;;;;1.20;1.10;;;12.10;82.60;;;;;;5127521;27;27372;-56
2021/05/19 03:44:35;;;;;;;0.98;0.82;;;12.10;82.40;;;;;;5127364;27;27392;-55
2021/05/19 03:47:45;;;;;;;0.77;0.73;;;12.10;83.20;;;;;;5124305;27;27405;-57
2021/05/19 03:51:12;;;;;;;1.48;0.90;;;12.10;83.10;;;;;;5111933;27;27490;-56
2021/05/19 03:54:09;;;;;;;1.30;1.20;;;12.10;82.90;;;;;;5127270;27;27305;-55
2021/05/19 03:57:08;;;;;;;1.30;1.20;;;12.10;82.70;;;;;;5112094;27;26944;-56
2021/05/19 04:00:35;;;;;;;3.42;0.95;;;12.10;82.90;;;;;;5108700;27;27403;-55
2021/05/19 04:04:10;;;;;;;0.77;0.75;;;12.10;83.30;;;;;;5127298;27;27307;-54
2021/05/19 04:07:22;;;;;;;2.05;1.13;;;12.10;82.70;;;;;;5086069;28;27585;-54
2021/05/19 04:10:29;;;;;;;1.88;1.17;;;12.10;83.40;;;;;;5086693;28;27340;-57
2021/05/19 04:13:56;;;;;;;1.15;0.90;;;12.10;83.40;;;;;;5083741;28;27831;-56
2021/05/19 04:17:43;;;;;;;0.80;0.80;;;12.10;83.20;;;;;;5086033;28;27399;-56
2021/05/19 04:20:49;;;;;;;0.90;0.90;;;12.10;83.40;;;;;;5085866;28;27482;-55
2021/05/19 04:24:18;;;;;;;1.50;1.30;;;12.10;83.70;;;;;;5085385;28;27403;-56
2021/05/19 04:27:30;;;;;;;1.45;0.90;;;12.10;83.30;;;;;;5085163;28;27332;-57
2021/05/19 04:30:18;;;;;;;5.18;1.00;;;12.10;83.70;;;;;;5086128;28;27397;-56
2021/05/19 04:33:17;;;;;;;1.75;1.13;;;12.10;83.90;;;;;;5085718;28;26966;-56
2021/05/19 04:36:30;;;;;;;1.58;1.48;;;12.20;84.10;;;;;;5085954;28;27430;-56
2021/05/19 04:39:27;;;;;;;2.35;1.20;;;12.10;84.10;;;;;;5086344;28;27906;-56
2021/05/19 04:42:33;;;;;;;1.33;0.93;;;12.10;84.00;;;;;;5086527;28;27534;-53
2021/05/19 04:46:00;;;;;;;2.70;1.20;;;12.20;84.60;;;;;;5086599;28;27403;-56
2021/05/19 04:49:07;;;;;;;4.38;1.73;;;12.20;84.70;;;;;;5086001;28;27635;-56
2021/05/19 04:52:34;;;;;;;1.33;1.23;;;12.20;84.70;;;;;;5085550;28;27394;-56
2021/05/19 04:56:05;;;;;;;2.50;1.70;;;12.20;84.70;;;;;;5082000;28;27490;-57
2021/05/19 04:59:32;;;;;;;3.25;1.20;;;12.20;84.70;;;;;;5086056;28;27026;-55
2021/05/19 05:03:23;;;;;;;3.20;1.50;;;12.20;85.00;;;;;;5082556;28;27342;-57
2021/05/19 05:06:08;;;;;;;2.05;1.30;;;12.20;85.00;;;;;;5121055;27;27493;-50
2021/05/19 05:09:35;;;;;;;2.50;1.90;;;12.20;85.40;;;;;;5126929;27;27392;-57
2021/05/19 05:13:13;;;;;;;1.30;1.20;;;12.20;85.40;;;;;;5127277;27;27419;-57
2021/05/19 05:16:41;;;;;;;1.42;1.17;;;12.20;85.60;;;;;;5126575;27;27328;-55
2021/05/19 05:19:53;;;;;;;2.97;1.55;;;12.20;85.40;;;;;;5126713;27;27319;-56
2021/05/19 05:22:59;;;;;;;1.55;1.25;;;12.20;85.70;;;;;;5126695;27;27432;-56
2021/05/19 05:26:05;;;;;;;1.80;1.17;;;12.20;85.70;;;;;;5126281;27;27572;-57
2021/05/19 05:29:18;;;;;;;1.42;1.33;;;12.20;85.40;;;;;;5126895;27;27477;-57
2021/05/19 05:32:36;;;;;;;1.73;1.60;;;12.20;85.60;;;;;;5126528;27;27336;-57
2021/05/19 05:35:29;;;;;;;1.48;1.20;;;12.20;85.60;;;;;;5126500;27;27521;-57
2021/05/19 05:38:14;;;;;;;2.30;1.30;;;12.20;85.70;;;;;;5126829;27;27504;-53
2021/05/19 05:41:27;;;;;;;1.20;1.10;;;12.20;85.90;;;;;;5126439;27;27316;-56
2021/05/19 05:44:33;;;;;;;4.38;1.42;;;12.30;85.80;;;;;;5123332;27;28054;-55
2021/05/19 05:48:01;;;;;;;1.98;1.40;;;12.30;86.10;;;;;;5125401;27;27406;-57
2021/05/19 05:51:20;;;;;;;3.33;1.98;;;12.40;82.50;;;;;;5125934;27;27316;-56
2021/05/19 05:54:47;;;;;;;4.53;1.95;;;12.40;83.20;;;;;;5124936;27;27418;-57
2021/05/19 05:58:05;;;;;;;3.15;1.88;;;12.50;82.30;;;;;;5126124;27;27371;-56
2021/05/19 06:01:11;;;;;;;3.17;1.80;;;12.60;82.10;;;;;;5125977;27;27462;-57
2021/05/19 06:04:38;;;;;;;1.92;1.52;;;12.60;82.30;;;;;;5126132;27;27455;-56
2021/05/19 06:08:23;;;;;;;2.33;1.85;;;12.70;83.00;;;;;;5081601;28;27411;-57
2021/05/19 06:11:30;;;;;;;1.67;1.55;;;13.00;82.80;;;;;;5084929;28;27472;-57
2021/05/19 06:14:40;;;;;;;4.72;2.00;;;13.30;81.80;;;;;;5084602;28;27341;-57
2021/05/19 06:18:05;;;;;;;3.30;1.92;;;13.60;80.80;;;;;;5085248;28;27496;-57
2021/05/19 06:21:18;;;;;;;3.17;1.95;;;13.70;80.70;;;;;;5084352;28;27627;-57
2021/05/19 06:24:44;;;;;;;2.83;2.17;;;14.00;80.20;;;;;;5081486;28;27419;-57
2021/05/19 06:27:50;;;;;;;1.95;1.70;;;14.20;80.30;;;;;;5085028;28;27348;-57
2021/05/19 06:30:56;;;;;;;3.05;2.08;;;14.40;79.20;;;;;;5083989;28;27410;-57
2021/05/19 06:34:04;;;;;;;2.30;2.08;;;14.40;79.80;;;;;;5084666;28;27403;-57
2021/05/19 06:37:10;;;;;;;6.45;2.80;;;14.50;80.70;;;;;;5083696;28;27903;-57
2021/05/19 06:40:21;;;;;;;2.53;1.80;;;15.00;78.60;;;;;;5083796;28;27380;-57
2021/05/19 06:43:29;;;;;;;4.70;2.10;;;15.20;78.30;;;;;;5083550;28;27454;-57
2021/05/19 06:46:37;;;;;;;2.63;1.88;;;15.50;77.60;;;;;;5082735;28;27422;-58
2021/05/19 06:50:03;;;;;;;3.13;1.88;;;15.50;78.00;;;;;;5084044;28;27382;-56
2021/05/19 06:53:30;;;;;;;2.88;1.75;;;15.60;79.00;;;;;;5084290;28;27401;-57
2021/05/19 06:57:04;;;;;;;3.88;1.55;;;15.50;79.00;;;;;;5084142;28;27332;-57
2021/05/19 07:00:25;;;;;;;3.65;1.50;;;15.50;80.30;;;;;;5082980;28;27663;-56
2021/05/19 07:03:52;;;;;;;3.95;1.80;;;15.40;81.10;;;;;;5084199;28;27332;-57
2021/05/19 07:07:02;;;;;;;2.63;1.50;;;15.40;81.00;;;;;;5121996;27;27504;-56
2021/05/19 07:10:30;;;;;;;1.70;1.58;;;15.40;81.00;;;;;;5125042;27;27416;-57
2021/05/19 07:14:02;;;;;;;3.63;2.13;;;15.40;80.50;;;;;;5124780;27;27474;-57
2021/05/19 07:17:00;;;;;;;9.07;1.90;;;15.40;81.70;;;;;;5124670;27;27446;-54
2021/05/19 07:20:26;;;;;;;1.95;1.58;;;15.30;82.00;;;;;;5125366;27;27501;-57
2021/05/19 07:23:37;;;;;;;3.80;1.67;;;15.30;83.40;;;;;;5124994;27;27399;-56
2021/05/19 07:26:56;;;;;;;1.65;1.30;;;15.20;83.40;;;;;;5125187;27;27461;-57
2021/05/19 07:30:09;;;;;;;3.20;1.70;;;15.20;84.10;;;;;;5124788;27;27383;-58
2021/05/19 07:33:40;;;;;;;1.92;1.73;;;15.40;82.70;;;;;;5124793;27;27478;-58
2021/05/19 07:36:52;;;;;;;2.75;1.40;;;15.90;82.50;;;;;;5123056;27;27413;-57
2021/05/19 07:40:01;;;;;;;4.85;1.40;;;16.50;81.40;;;;;;5124730;27;27382;-57
2021/05/19 07:43:07;;;;;;;1.85;1.60;;;16.80;81.70;;;;;;5124373;27;27642;-58
2021/05/19 07:46:14;;;;;;;2.17;1.75;;;17.00;81.70;;;;;;5124688;27;27523;-58
2021/05/19 07:49:42;;;;;;;3.08;1.30;;;17.20;80.80;;;;;;5124116;27;27446;-57
2021/05/19 07:52:55;;;;;;;2.20;1.48;;;17.30;79.80;;;;;;5108406;27;27385;-57
2021/05/19 07:59:39;;;;;;;2.67;1.65;;;17.80;79.80;;;;;;5124277;27;27494;-58
2021/05/19 08:03:10;;;;;;;3.05;1.67;;;18.00;77.80;;;;;;5124466;27;27422;-58
2021/05/19 08:06:18;;;;;;;2.38;1.50;;;18.20;77.70;;;;;;5122431;27;27367;-57
2021/05/19 08:09:46;;;;;;;2.97;1.75;;;18.70;77.00;;;;;;5122860;27;27953;-58
2021/05/19 08:12:43;;;;;;;2.80;1.88;;;18.90;76.10;;;;;;5124478;27;27419;-58
2021/05/19 08:15:57;;;;;;;4.30;1.50;;;19.30;75.00;;;;;;5128216;27;27513;-58
2021/05/19 08:19:25;;;;;;;1.85;1.30;;;19.90;72.80;;;;;;5127604;27;27660;-58
2021/05/19 08:22:39;;;;;;;3.70;1.55;;;20.70;71.90;;;;;;5127433;27;27968;-58
2021/05/19 08:26:08;;;;;;;1.25;1.10;;;21.80;68.80;;;;;;5126087;27;27424;-57
2021/05/19 08:29:42;;;;;;;2.90;1.10;;;22.60;66.40;;;;;;5109056;27;27418;-58
2021/05/19 08:33:21;;;;;;;2.10;0.93;;;23.40;64.40;;;;;;5127596;27;27465;-58
2021/05/19 08:36:32;;;;;;;1.00;0.90;;;23.60;62.80;;;;;;5126091;27;27528;-57
2021/05/19 08:39:59;;;;;;;1.50;1.20;;;23.60;62.40;;;;;;5126266;27;27498;-58
2021/05/19 08:43:26;;;;;;;4.30;1.55;;;23.70;60.40;;;;;;5126731;27;27612;-58
2021/05/19 08:46:56;;;;;;;1.52;1.02;;;23.30;60.20;;;;;;5126446;27;27457;-58
2021/05/19 08:50:10;;;;;;;3.08;0.88;;;23.40;59.80;;;;;;5127161;27;27395;-57
2021/05/19 08:53:26;;;;;;;2.65;0.98;;;23.70;59.40;;;;;;5126767;27;27316;-58
2021/05/19 08:56:13;;;;;;;1.23;0.80;;;23.80;58.80;;;;;;5127207;27;27394;-55
2021/05/19 08:59:29;;;;;;;1.40;0.88;;;23.90;58.30;;;;;;5127141;27;27378;-57
2021/05/19 09:03:08;;;;;;;2.97;0.80;;;23.80;58.10;;;;;;5127336;27;27386;-58
2021/05/19 09:06:19;;;;;;;2.80;0.90;;;23.60;57.90;;;;;;5126111;27;27607;-58
2021/05/19 09:10:02;;;;;;;4.43;0.82;;;23.70;56.60;;;;;;5111785;27;27394;-58
2021/05/19 09:13:35;;;;;;;1.95;0.80;;;23.60;57.30;;;;;;5126690;27;27382;-57
2021/05/19 09:16:31;;;;;;;0.63;0.63;;;23.70;56.50;;;;;;5126617;27;27382;-57
2021/05/19 09:19:32;;;;;;;1.58;0.70;;;24.00;57.00;;;;;;5126832;27;27395;-58
2021/05/19 09:22:24;;;;;;;2.13;1.00;;;24.30;53.70;;;;;;5125830;27;27415;-52
2021/05/19 09:25:19;;;;;;;0.88;0.63;;;24.60;53.40;;;;;;5126732;27;27317;-58
2021/05/19 09:28:23;;;;;;;1.30;0.73;;;24.90;54.30;;;;;;5126632;27;27382;-58
2021/05/19 09:31:57;;;;;;;2.05;0.70;;;25.20;55.80;;;;;;5126146;27;27406;-59
2021/05/19 09:35:18;;;;;;;2.80;0.75;;;25.60;54.90;;;;;;5126239;27;27336;-58
2021/05/19 09:38:25;;;;;;;7.20;2.70;;;25.60;54.20;;;;;;5126772;27;27408;-58
2021/05/19 09:41:28;;;;;;;2.00;0.75;;;25.30;54.40;;;;;;5126199;27;27374;-58
2021/05/19 09:44:35;;;;;;;2.38;0.80;;;25.10;56.00;;;;;;5126264;27;27475;-58
2021/05/19 09:47:57;;;;;;;0.75;0.40;;;25.30;54.90;;;;;;5125442;27;27380;-58
2021/05/19 09:51:04;;;;;;;2.45;0.80;;;25.10;54.70;;;;;;5126081;27;27438;-58
2021/05/19 09:54:29;;;;;;;2.63;0.57;;;25.00;55.00;;;;;;5111326;27;27494;-59
2021/05/19 09:57:44;;;;;;;2.78;0.60;;;25.20;53.60;;;;;;5126427;27;27483;-59
2021/05/19 10:01:02;;;;;;;1.27;0.52;;;25.50;54.40;;;;;;5125216;27;27583;-58
2021/05/19 10:08:27;;;;;;;1.27;0.30;;;25.80;53.80;;;;;;5081504;28;27330;-58
2021/05/19 10:11:48;;;;;;;0.85;0.50;;;26.10;51.80;;;;;;5081465;28;27449;-57
2021/05/19 10:15:15;;;;;;;2.08;0.73;;;26.30;53.20;;;;;;5084976;28;27394;-58
2021/05/19 10:18:43;;;;;;;1.38;0.50;;;26.30;51.60;;;;;;5084893;28;27373;-58
2021/05/19 10:21:51;;;;;;;2.50;0.60;;;25.90;54.00;;;;;;5081551;28;27926;-57
2021/05/19 10:25:33;;;;;;;1.67;0.40;;;25.30;53.60;;;;;;5084804;28;27374;-58
2021/05/19 10:28:42;;;;;;;1.58;0.50;;;24.90;52.50;;;;;;5085058;28;27473;-58
2021/05/19 10:32:14;;;;;;;1.45;0.60;;;25.00;54.70;;;;;;5084495;28;27347;-58
2021/05/19 10:35:27;;;;;;;1.05;0.50;;;25.30;53.40;;;;;;5084152;28;27401;-58
2021/05/19 10:38:24;;;;;;;1.50;0.40;;;25.50;52.60;;;;;;5084547;28;27392;-55
2021/05/19 10:41:38;;;;;;;1.75;0.45;;;25.70;52.60;;;;;;5084608;28;27473;-58
2021/05/19 10:44:47;;;;;;;2.60;0.47;;;25.90;54.00;;;;;;5084511;28;27457;-59
2021/05/19 10:47:58;;;;;;;0.75;0.45;;;26.20;54.90;;;;;;5083410;28;27387;-58
2021/05/19 10:51:24;;;;;;;1.13;0.43;;;26.30;52.30;;;;;;5083867;28;27414;-59
2021/05/19 10:58:01;;;;;;;2.95;0.60;;;26.20;52.30;;;;;;5084365;28;27450;-58
2021/05/19 11:01:18;;;;;;;2.30;0.75;;;26.40;48.90;;;;;;5083835;28;27548;-58
2021/05/19 11:04:17;;;;;;;1.13;0.50;;;26.50;50.90;;;;;;5084208;28;27429;-56
2021/05/19 11:07:04;;;;;;;3.90;0.65;;;26.50;50.60;;;;;;5084208;28;27389;-58
2021/05/19 11:10:36;;;;;;;1.10;0.40;;;26.60;52.60;;;;;;5084104;28;27393;-59
2021/05/19 11:13:56;;;;;;;3.45;0.60;;;26.60;53.00;;;;;;5084015;28;27389;-58
2021/05/19 11:17:03;;;;;;;3.47;1.00;;;26.70;54.10;;;;;;5084067;28;27395;-58
2021/05/19 11:20:12;;;;;;;1.65;0.70;;;26.90;54.50;;;;;;5080352;28;27399;-57
2021/05/19 11:23:10;;;;;;;2.75;0.80;;;27.00;52.90;;;;;;5083222;28;27340;-58
2021/05/19 11:26:16;;;;;;;1.10;0.63;;;26.60;51.50;;;;;;5083928;28;27335;-57
2021/05/19 11:29:17;;;;;;;2.45;0.70;;;26.10;49.90;;;;;;5083904;28;27422;-58
2021/05/19 11:32:22;;;;;;;1.20;0.50;;;25.60;48.80;;;;;;5083962;28;27440;-53
2021/05/19 11:35:17;;;;;;;1.40;0.70;;;25.30;51.60;;;;;;5084079;28;27336;-58
2021/05/19 11:38:29;;;;;;;1.38;0.40;;;25.40;55.70;;;;;;5083801;28;27389;-57
2021/05/19 11:41:34;;;;;;;2.78;0.60;;;25.60;55.10;;;;;;5068667;28;27486;-57
2021/05/19 11:44:58;;;;;;;1.17;0.60;;;25.80;54.20;;;;;;5079777;28;27481;-58
2021/05/19 11:48:11;;;;;;;2.15;0.60;;;26.00;54.00;;;;;;5087266;28;27312;-58
2021/05/19 11:51:07;;;;;;;0.70;0.47;;;26.30;52.20;;;;;;5086833;28;27440;-57
2021/05/19 11:54:00;;;;;;;3.60;0.68;;;26.30;50.70;;;;;;5071825;28;27447;-58
2021/05/19 11:57:26;;;;;;;3.55;0.70;;;26.20;51.30;;;;;;5087499;28;27484;-58
2021/05/19 12:00:32;;;;;;;1.42;0.63;;;26.10;49.90;;;;;;5086145;28;27457;-58
2021/05/19 12:03:38;;;;;;;2.10;0.60;;;26.10;52.10;;;;;;5087273;28;27465;-58
2021/05/19 12:06:25;;;;;;;2.85;0.65;;;26.10;51.00;;;;;;5119694;27;27458;-58
2021/05/19 12:09:37;;;;;;;1.52;0.60;;;26.10;53.50;;;;;;5112873;27;27396;-58
2021/05/19 12:12:48;;;;;;;0.88;0.50;;;26.10;55.30;;;;;;5127464;27;27598;-58
2021/05/19 12:16:17;;;;;;;1.25;0.47;;;26.20;54.20;;;;;;5076315;27;27415;-57
2021/05/19 12:19:13;;;;;;;2.22;0.60;;;25.90;51.50;;;;;;5127266;27;27469;-58
2021/05/19 12:22:14;;;;;;;0.93;0.50;;;25.90;55.40;;;;;;5127791;27;27419;-58
2021/05/19 12:25:35;;;;;;;2.15;0.52;;;25.80;56.70;;;;;;5127972;27;27318;-58
2021/05/19 12:28:46;;;;;;;1.27;0.60;;;25.80;56.80;;;;;;5127611;27;27606;-58
2021/05/19 12:32:06;;;;;;;2.05;0.88;;;25.80;55.30;;;;;;5125726;27;27585;-55
2021/05/19 12:35:12;;;;;;;2.90;0.70;;;25.80;54.60;;;;;;5127924;27;27371;-55
2021/05/19 12:38:16;;;;;;;1.60;0.80;;;25.70;56.40;;;;;;5127526;27;27365;-58
2021/05/19 12:41:44;;;;;;;4.32;0.70;;;25.70;57.30;;;;;;5127682;27;27335;-58
2021/05/19 12:44:36;;;;;;;1.17;0.47;;;25.70;54.30;;;;;;5126389;27;27426;-58
2021/05/19 12:47:41;;;;;;;1.02;0.60;;;25.60;54.00;;;;;;5127418;27;27382;-58
2021/05/19 12:51:00;;;;;;;1.35;0.60;;;25.40;55.80;;;;;;5126957;27;27417;-58
2021/05/19 12:54:11;;;;;;;2.85;0.60;;;25.40;57.10;;;;;;5126556;27;27980;-58
2021/05/19 12:57:23;;;;;;;1.80;0.55;;;25.40;57.50;;;;;;5127208;27;27324;-55
2021/05/19 13:00:40;;;;;;;3.33;0.50;;;25.50;57.50;;;;;;5127475;27;27452;-57
2021/05/19 13:03:34;;;;;;;0.98;0.38;;;25.50;55.20;;;;;;5127431;27;27375;-55
2021/05/19 13:06:36;;;;;;;0.60;0.60;;;25.30;51.30;;;;;;5104176;28;27598;-57
2021/05/19 13:09:42;;;;;;;0.90;0.57;;;25.00;52.00;;;;;;5106702;28;27415;-57
2021/05/19 13:12:51;;;;;;;1.17;0.50;;;24.80;52.80;;;;;;5105898;28;27486;-58
2021/05/19 13:19:19;;;;;;;2.47;0.80;;;24.60;55.80;;;;;;5105877;28;27832;-57
2021/05/19 13:22:26;;;;;;;1.08;0.40;;;24.60;55.90;;;;;;5105976;28;27454;-57
2021/05/19 13:25:23;;;;;;;1.13;0.40;;;24.50;54.40;;;;;;5105072;28;27367;-57
2021/05/19 13:28:34;;;;;;;1.27;0.70;;;24.50;56.30;;;;;;5106148;28;27363;-58
2021/05/19 13:32:08;;;;;;;1.25;0.47;;;24.50;56.70;;;;;;5104658;28;27466;-58
2021/05/19 13:39:16;;;;;;;1.35;0.63;;;24.60;56.60;;;;;;5105388;28;27381;-57
2021/05/19 13:42:27;;;;;;;1.17;0.60;;;24.60;54.10;;;;;;5104607;28;27452;-56
2021/05/19 13:45:38;;;;;;;1.70;0.60;;;24.50;51.70;;;;;;5102535;28;27324;-56
2021/05/19 13:48:45;;;;;;;1.50;0.50;;;24.40;52.10;;;;;;5106051;28;27466;-58
2021/05/19 13:51:44;;;;;;;2.38;0.50;;;24.30;53.80;;;;;;5105275;28;27426;-57
2021/05/19 13:55:11;;;;;;;2.47;0.57;;;24.20;53.80;;;;;;5106029;28;27310;-57
2021/05/19 13:58:20;;;;;;;1.25;0.40;;;24.20;52.80;;;;;;5078457;28;27440;-57
2021/05/19 14:01:33;;;;;;;3.70;0.55;;;24.00;52.20;;;;;;5105802;28;27411;-57
2021/05/19 14:04:39;;;;;;;4.30;0.82;;;23.80;52.50;;;;;;5082002;28;27460;-57
2021/05/19 14:07:39;;;;;;;2.95;1.00;;;23.70;52.90;;;;;;5084597;28;27624;-56
2021/05/19 14:11:11;;;;;;;2.15;0.40;;;23.70;49.60;;;;;;5084972;28;27844;-55
2021/05/19 14:18:26;;;;;;;3.65;0.80;;;23.70;44.20;;;;;;5081758;28;27390;-56
2021/05/19 14:28:28;;;;;;;4.18;0.60;;;23.40;43.80;;;;;;5084760;28;27421;-57
2021/05/19 14:31:33;;;;;;;2.28;1.30;;;23.30;44.20;;;;;;5084851;28;27382;-55
2021/05/19 14:35:03;;;;;;;7.50;1.70;;;23.40;44.30;;;;;;5084579;28;27401;-51
2021/05/19 15:01:56;;;;;;;1.42;0.50;;;23.30;45.70;;;;;;5084293;28;27399;-56
2021/05/19 15:05:07;;;;;;;0.38;0.38;;;23.20;46.60;;;;;;5086922;27;27557;-56
2021/05/19 15:08:23;;;;;;;3.15;0.30;;;23.10;46.70;;;;;;5125132;27;27398;-57
2021/05/19 15:11:10;;;;;;;2.30;0.43;;;23.10;46.70;;;;;;5082792;27;27542;-50
2021/05/19 15:14:16;;;;;;;1.15;0.50;;;23.00;47.10;;;;;;5122213;27;27340;-57
2021/05/19 15:17:43;;;;;;;1.02;0.50;;;22.90;47.40;;;;;;5124700;27;27458;-57
2021/05/19 15:21:04;;;;;;;2.40;0.40;;;22.90;47.60;;;;;;5126199;27;27449;-53
2021/05/19 15:24:32;;;;;;;0.80;0.40;;;22.90;47.20;;;;;;5128981;27;27393;-56
2021/05/19 15:27:56;;;;;;;0.93;0.47;;;22.80;47.70;;;;;;5110015;27;27344;-56
2021/05/19 15:31:24;;;;;;;0.50;0.40;;;22.70;47.40;;;;;;5128290;27;27427;-57
2021/05/19 15:34:49;;;;;;;0.77;0.63;;;22.70;48.20;;;;;;5128161;27;27328;-54
2021/05/19 15:38:17;;;;;;;0.43;0.35;;;22.60;48.20;;;;;;5125416;27;27426;-56
2021/05/19 15:41:28;;;;;;;1.90;0.40;;;22.60;48.80;;;;;;5128779;27;27458;-57
2021/05/19 15:44:46;;;;;;;1.33;0.75;;;22.50;49.80;;;;;;5128351;27;27471;-57
2021/05/19 15:48:31;;;;;;;5.57;0.60;;;22.50;50.20;;;;;;5128259;27;27977;-56
2021/05/19 15:51:59;;;;;;;1.05;0.35;;;22.50;49.60;;;;;;5124743;27;27342;-56
2021/05/19 15:55:50;;;;;;;0.15;0.15;;;22.50;49.30;;;;;;5124689;27;27393;-55
2021/05/19 15:59:02;;;;;;;1.55;0.45;;;22.50;50.10;;;;;;5127880;27;26990;-54
2021/05/19 16:02:07;;;;;;;0.65;0.50;;;22.50;49.10;;;;;;5128173;27;27419;-56
2021/05/19 16:05:35;;;;;;;2.15;0.50;;;22.40;49.40;;;;;;5127492;27;27414;-55
2021/05/19 16:08:53;;;;;;;3.67;0.57;;;22.40;49.50;;;;;;5127987;27;27431;-54
2021/05/19 16:11:59;;;;;;;3.53;0.70;;;22.30;49.50;;;;;;5127688;27;27379;-57
2021/05/19 16:15:06;;;;;;;3.25;0.82;;;22.30;49.70;;;;;;5127868;27;27317;-57
2021/05/19 16:18:00;;;;;;;1.90;0.90;;;22.30;50.30;;;;;;5127556;27;27594;-56
2021/05/19 16:21:05;;;;;;;3.05;1.55;;;22.30;49.60;;;;;;5127901;27;27411;-57
2021/05/19 16:23:56;;;;;;;3.63;1.40;;;22.30;49.40;;;;;;5127803;27;27422;-58
2021/05/19 16:27:03;;;;;;;3.38;1.50;;;22.20;44.20;;;;;;5124528;27;27316;-57
2021/05/19 16:34:25;;;;;;;2.65;1.10;;;22.10;47.90;;;;;;5021629;28;27417;-56
2021/05/19 16:37:31;;;;;;;22.23;4.35;;;22.00;49.20;;;;;;5007743;28;27362;-57
2021/05/19 16:40:24;;;;;;;3.88;1.80;;;21.80;46.10;;;;;;5024213;28;27520;-55
2021/05/19 16:43:30;;;;;;;3.03;1.77;;;21.70;47.00;;;;;;5010519;28;27378;-50
2021/05/19 16:46:32;;;;;;;3.25;1.40;;;21.60;50.00;;;;;;5024364;28;27449;-51
2021/05/19 16:49:47;;;;;;;2.40;1.33;;;21.50;52.30;;;;;;5024351;28;27377;-51
2021/05/19 16:53:18;;;;;;;3.33;0.90;;;21.30;53.10;;;;;;5001530;28;27985;-52
2021/05/19 16:56:25;;;;;;;3.50;1.00;;;21.20;52.90;;;;;;5024258;28;27438;-52
2021/05/19 16:59:42;;;;;;;2.15;1.38;;;21.00;50.90;;;;;;5024342;28;27485;-50
2021/05/19 17:06:19;;;;;;;3.17;0.80;;;20.80;53.60;;;;;;5029970;28;27679;-51
2021/05/19 17:09:45;;;;;;;3.25;1.95;;;20.70;54.00;;;;;;5085016;28;27406;-47
2021/05/19 17:12:50;;;;;;;14.00;5.47;;;20.60;53.80;;;;;;5085972;28;27406;-46
2021/05/19 17:15:54;;;;;;;6.03;2.72;;;20.50;54.40;;;;;;5086037;28;27483;-47
2021/05/19 17:19:21;;;;;;;3.17;2.00;;;20.40;54.60;;;;;;5059750;28;28049;-49
2021/05/19 17:22:36;;;;;;;4.13;1.50;;;20.30;55.00;;;;;;5085467;28;27405;-47
2021/05/19 17:25:48;;;;;;;1.23;0.95;;;20.20;54.50;;;;;;5070804;28;27394;-49
2021/05/19 17:29:01;;;;;;;2.50;1.40;;;20.10;56.50;;;;;;5082428;28;27402;-50
2021/05/19 17:32:17;;;;;;;2.40;1.13;;;20.10;57.60;;;;;;5084490;28;27429;-47
2021/05/19 17:35:17;;;;;;;5.22;1.13;;;20.10;58.00;;;;;;5085747;28;27417;-48
2021/05/19 17:38:15;;;;;;;5.20;2.28;;;20.00;57.20;;;;;;5058576;28;27429;-49
2021/05/19 17:41:05;;;;;;;10.30;4.50;;;19.90;58.00;;;;;;5099219;28;27387;-50
2021/05/19 17:44:02;;;;;;;7.15;3.20;;;19.80;57.90;;;;;;5084563;28;27348;-49
2021/05/19 17:46:53;;;;;;;10.63;4.07;;;19.70;57.00;;;;;;5085357;28;27399;-51